Time;durP1;ratioP1;P1;durP2;ratioP2;P2;SDS_P1;SDS_P2;PMS_P1;PMS_P2;Temp;Humidity;BMP_temperature;BMP_pressure;BME280_temperature;BME280_humidity;BME280_pressure;Samples;Min_cycle;Max_cycle;Signal;HPM_P1;HPM_P2
2023/08/23 00:00:16;;;;;;;3.90;3.60;;;23.20;99.90;;;;;;5080813;28;20584;-80
2023/08/23 00:02:43;;;;;;;4.53;4.20;;;23.30;99.90;;;;;;5074681;28;20467;-83
2023/08/23 00:05:10;;;;;;;4.03;3.77;;;23.40;99.90;;;;;;5078375;28;20527;-81
2023/08/23 00:07:37;;;;;;;7.10;3.80;;;23.40;99.90;;;;;;5076554;28;20512;-81
2023/08/23 00:10:04;;;;;;;5.47;4.97;;;23.30;99.90;;;;;;5089742;28;21010;-82
2023/08/23 00:12:32;;;;;;;5.17;4.67;;;23.00;99.90;;;;;;5080321;28;20471;-81
2023/08/23 00:15:00;;;;;;;4.40;4.00;;;22.90;99.90;;;;;;5085161;28;20468;-81
2023/08/23 00:17:27;;;;;;;6.47;4.67;;;22.80;99.90;;;;;;5084546;28;20535;-82
2023/08/23 00:19:55;;;;;;;6.97;4.13;;;23.00;99.90;;;;;;5088852;28;20451;-82
2023/08/23 00:22:21;;;;;;;4.30;3.57;;;23.00;99.90;;;;;;5081889;28;20966;-81
2023/08/23 00:24:48;;;;;;;4.43;4.13;;;23.10;99.90;;;;;;5075912;28;20455;-83
2023/08/23 00:27:15;;;;;;;4.97;3.40;;;23.10;99.90;;;;;;5084883;28;20467;-82
2023/08/23 00:29:44;;;;;;;4.47;4.17;;;23.10;99.90;;;;;;5078889;28;20461;-81
2023/08/23 00:32:11;;;;;;;4.87;4.47;;;23.10;99.90;;;;;;5076332;28;20916;-81
2023/08/23 00:34:38;;;;;;;3.27;3.10;;;23.00;99.90;;;;;;5077792;28;20447;-81
2023/08/23 00:37:05;;;;;;;4.40;4.00;;;23.00;99.90;;;;;;5078088;28;20462;-83
2023/08/23 00:39:32;;;;;;;4.63;4.20;;;22.90;99.90;;;;;;5076997;28;20487;-81
2023/08/23 00:41:59;;;;;;;4.37;4.07;;;22.80;99.90;;;;;;5077184;28;20495;-81
2023/08/23 00:44:26;;;;;;;3.60;3.30;;;22.80;99.90;;;;;;5070598;28;20529;-83
2023/08/23 00:46:54;;;;;;;5.17;4.77;;;22.80;99.90;;;;;;5072552;28;20495;-82
2023/08/23 00:49:22;;;;;;;4.63;4.23;;;22.80;99.90;;;;;;5074564;28;20464;-80
2023/08/23 00:51:50;;;;;;;4.73;3.57;;;22.80;99.90;;;;;;5072574;28;20892;-82
2023/08/23 00:54:18;;;;;;;6.67;4.33;;;22.90;99.90;;;;;;5076793;28;20447;-81
2023/08/23 00:56:46;;;;;;;4.10;3.80;;;22.90;99.90;;;;;;5069974;28;20485;-83
2023/08/23 00:59:13;;;;;;;4.50;3.93;;;22.80;99.90;;;;;;5075306;28;20631;-83
2023/08/23 01:01:40;;;;;;;3.37;3.17;;;22.80;99.90;;;;;;5073100;28;20490;-81
2023/08/23 01:04:08;;;;;;;7.10;4.70;;;22.70;99.90;;;;;;5078176;28;20497;-81
2023/08/23 01:06:46;;;;;;;3.63;3.30;;;22.60;99.90;;;;;;5077573;28;20467;-81
2023/08/23 01:09:22;;;;;;;3.70;3.50;;;22.60;99.90;;;;;;5075443;28;20913;-84
2023/08/23 01:11:57;;;;;;;5.03;3.73;;;22.50;99.90;;;;;;5077872;28;20447;-84
2023/08/23 01:14:32;;;;;;;4.53;4.17;;;22.40;99.90;;;;;;5074678;28;20929;-78
2023/08/23 01:17:00;;;;;;;4.60;4.20;;;22.50;99.90;;;;;;5071057;28;20494;-78
2023/08/23 01:19:43;;;;;;;4.00;3.60;;;22.40;99.90;;;;;;5073156;28;20511;-81
2023/08/23 01:22:13;;;;;;;5.00;4.33;;;22.40;99.90;;;;;;5078644;28;20566;-79
2023/08/23 01:24:42;;;;;;;3.83;3.53;;;22.40;99.90;;;;;;5076406;28;20463;-80
2023/08/23 01:27:09;;;;;;;4.87;4.50;;;22.40;99.90;;;;;;5075901;28;20467;-82
2023/08/23 01:29:36;;;;;;;4.53;4.00;;;22.40;99.90;;;;;;5079672;28;20451;-82
2023/08/23 01:32:12;;;;;;;5.13;4.73;;;22.50;99.90;;;;;;5074995;28;20883;-81
2023/08/23 01:34:45;;;;;;;3.77;3.47;;;22.50;99.90;;;;;;5082131;28;20431;-80
2023/08/23 01:37:13;;;;;;;7.00;5.23;;;22.50;99.90;;;;;;5072666;28;20512;-78
2023/08/23 01:39:43;;;;;;;4.93;4.47;;;22.70;99.90;;;;;;5076190;28;20519;-80
2023/08/23 01:42:11;;;;;;;4.10;3.80;;;22.70;99.90;;;;;;5077784;28;20463;-81
2023/08/23 01:44:42;;;;;;;4.87;4.47;;;22.70;99.90;;;;;;5074130;28;20461;-81
2023/08/23 01:47:09;;;;;;;6.97;4.63;;;22.60;99.90;;;;;;5079901;28;20455;-82
2023/08/23 01:49:36;;;;;;;6.00;5.50;;;22.60;99.90;;;;;;5083424;28;20862;-79
2023/08/23 01:52:03;;;;;;;4.77;4.37;;;22.60;99.90;;;;;;5072738;28;20471;-81
2023/08/23 01:54:30;;;;;;;5.80;5.40;;;22.50;99.90;;;;;;5075301;28;20568;-82
2023/08/23 01:56:58;;;;;;;5.80;4.90;;;22.40;99.90;;;;;;5080968;28;20459;-80
2023/08/23 01:59:25;;;;;;;7.23;5.03;;;22.40;99.90;;;;;;5078131;28;20476;-80
2023/08/23 02:01:52;;;;;;;4.10;3.77;;;22.30;99.90;;;;;;5073634;28;20479;-83
2023/08/23 02:04:20;;;;;;;5.80;5.30;;;22.30;99.90;;;;;;5066614;28;20472;-82
2023/08/23 02:06:47;;;;;;;6.20;4.73;;;22.30;99.90;;;;;;5067564;28;20543;-82
2023/08/23 02:09:14;;;;;;;6.33;4.50;;;22.10;99.90;;;;;;5068715;28;21253;-84
2023/08/23 02:11:41;;;;;;;4.53;4.23;;;21.90;99.90;;;;;;5065284;28;21203;-81
2023/08/23 02:14:09;;;;;;;9.43;6.23;;;21.90;99.90;;;;;;5068725;28;20520;-83
2023/08/23 02:16:37;;;;;;;5.73;5.23;;;21.80;99.90;;;;;;5081740;28;20463;-82
2023/08/23 02:19:04;;;;;;;5.27;4.83;;;22.00;99.90;;;;;;5078520;28;20561;-81
2023/08/23 02:21:31;;;;;;;5.37;4.97;;;22.00;99.90;;;;;;5074231;28;20455;-82
2023/08/23 02:23:58;;;;;;;4.27;3.87;;;22.00;99.90;;;;;;5074489;28;20744;-83
2023/08/23 02:26:25;;;;;;;7.40;5.83;;;21.90;99.90;;;;;;5080374;28;20452;-81
2023/08/23 02:28:52;;;;;;;4.53;4.20;;;21.90;99.90;;;;;;5076882;28;20515;-80
2023/08/23 02:31:20;;;;;;;4.23;3.83;;;22.00;99.90;;;;;;5081062;28;20559;-82
2023/08/23 02:33:47;;;;;;;5.67;5.20;;;22.10;99.90;;;;;;5081486;28;21168;-82
2023/08/23 02:36:14;;;;;;;4.17;3.87;;;22.10;99.90;;;;;;5074793;28;20501;-80
2023/08/23 02:38:41;;;;;;;6.63;6.13;;;22.10;99.90;;;;;;5071717;28;20486;-82
2023/08/23 02:41:08;;;;;;;5.00;4.53;;;22.10;99.90;;;;;;5074919;28;20491;-81
2023/08/23 02:43:36;;;;;;;7.83;3.93;;;22.10;99.90;;;;;;5066467;28;20958;-81
2023/08/23 02:46:03;;;;;;;5.10;4.60;;;22.00;99.90;;;;;;5071961;28;20468;-82
2023/08/23 02:48:31;;;;;;;4.40;4.10;;;22.10;99.90;;;;;;5075708;28;20503;-81
2023/08/23 02:50:59;;;;;;;4.53;4.13;;;22.10;99.90;;;;;;5074028;28;20529;-82
2023/08/23 02:53:26;;;;;;;5.17;4.77;;;22.00;99.90;;;;;;5068558;28;20502;-84
2023/08/23 02:55:53;;;;;;;4.07;3.70;;;22.10;99.90;;;;;;5070592;28;20464;-83
2023/08/23 02:58:20;;;;;;;5.33;4.87;;;22.10;99.90;;;;;;5065113;28;20521;-82
2023/08/23 03:00:47;;;;;;;4.60;4.20;;;22.10;99.90;;;;;;5070842;28;20541;-83
2023/08/23 03:03:14;;;;;;;6.50;5.33;;;22.10;99.90;;;;;;5065862;28;20792;-82
2023/08/23 03:05:52;;;;;;;4.83;4.37;;;22.10;99.90;;;;;;5069545;28;20517;-80
2023/08/23 03:08:19;;;;;;;4.47;4.07;;;21.90;99.90;;;;;;5074246;28;20451;-79
2023/08/23 03:10:46;;;;;;;4.70;4.30;;;21.80;99.90;;;;;;5067774;28;20949;-79
2023/08/23 03:13:13;;;;;;;4.53;4.13;;;21.90;99.90;;;;;;5066376;28;20482;-80
2023/08/23 03:15:40;;;;;;;5.37;4.87;;;21.90;99.90;;;;;;5069089;28;21029;-80
2023/08/23 03:18:07;;;;;;;5.07;4.67;;;21.90;99.90;;;;;;5066347;28;20479;-78
2023/08/23 03:20:34;;;;;;;5.97;5.47;;;21.80;99.90;;;;;;5074309;28;20507;-78
2023/08/23 03:23:02;;;;;;;9.30;4.80;;;21.80;99.90;;;;;;5076550;28;20495;-79
2023/08/23 03:25:29;;;;;;;4.50;4.10;;;21.80;99.90;;;;;;5077238;28;20999;-80
2023/08/23 03:27:56;;;;;;;4.17;3.77;;;21.90;99.90;;;;;;5088729;28;20542;-78
2023/08/23 03:30:23;;;;;;;4.70;4.40;;;21.90;99.90;;;;;;5083333;28;20975;-79
2023/08/23 03:32:50;;;;;;;4.40;4.00;;;21.80;99.90;;;;;;5090213;28;20509;-79
2023/08/23 03:35:17;;;;;;;6.57;4.30;;;21.80;99.90;;;;;;5077309;28;20821;-79
2023/08/23 03:37:44;;;;;;;4.27;3.97;;;21.80;99.90;;;;;;5087747;28;20824;-79
2023/08/23 03:40:14;;;;;;;6.23;4.07;;;21.80;99.90;;;;;;5097226;28;20527;-78
2023/08/23 03:42:41;;;;;;;6.57;5.10;;;21.80;99.90;;;;;;5091431;28;21272;-78
2023/08/23 03:45:09;;;;;;;7.10;4.70;;;21.80;99.90;;;;;;5077377;28;20463;-80
2023/08/23 03:47:36;;;;;;;4.20;3.80;;;21.80;99.90;;;;;;5089141;28;20501;-79
2023/08/23 03:50:04;;;;;;;7.47;4.43;;;21.90;99.90;;;;;;5088728;28;20939;-80
2023/08/23 03:52:31;;;;;;;4.47;4.17;;;21.80;99.90;;;;;;5082484;28;20541;-78
2023/08/23 03:54:57;;;;;;;6.57;4.90;;;21.80;99.90;;;;;;5088585;28;20527;-79
2023/08/23 03:57:26;;;;;;;5.77;4.30;;;21.90;99.90;;;;;;5077363;28;20524;-79
2023/08/23 03:59:53;;;;;;;6.70;5.03;;;22.00;99.90;;;;;;5089200;28;20492;-80
2023/08/23 04:02:21;;;;;;;6.00;4.70;;;22.00;99.90;;;;;;5073207;28;20549;-79
2023/08/23 04:04:48;;;;;;;6.17;5.40;;;21.80;99.90;;;;;;5073496;28;20505;-79
2023/08/23 04:07:16;;;;;;;5.27;4.77;;;21.70;99.90;;;;;;5070843;28;20563;-78
2023/08/23 04:09:43;;;;;;;5.63;5.13;;;21.60;99.90;;;;;;5077206;28;20470;-77
2023/08/23 04:12:10;;;;;;;6.10;5.60;;;21.70;99.90;;;;;;5068973;28;20510;-80
2023/08/23 04:14:38;;;;;;;9.50;7.37;;;21.70;99.90;;;;;;5069487;28;20464;-78
2023/08/23 04:17:05;;;;;;;8.30;7.60;;;21.80;99.90;;;;;;5068690;28;20505;-79
2023/08/23 04:19:32;;;;;;;7.23;6.63;;;21.90;99.90;;;;;;5068100;28;21063;-81
2023/08/23 04:21:59;;;;;;;10.23;9.43;;;21.90;99.90;;;;;;5085237;28;20443;-79
2023/08/23 04:24:26;;;;;;;10.97;10.03;;;21.70;99.90;;;;;;5085498;28;20503;-79
2023/08/23 04:26:53;;;;;;;9.80;8.90;;;21.50;99.90;;;;;;5080682;28;20824;-79
2023/08/23 04:29:20;;;;;;;7.00;2.87;;;21.20;99.90;;;;;;5081516;28;20491;-78
2023/08/23 04:31:48;;;;;;;9.37;2.60;;;20.40;99.90;;;;;;5086149;28;20503;-79
2023/08/23 04:34:15;;;;;;;7.93;2.43;;;19.40;99.90;;;;;;5088728;28;20472;-77
2023/08/23 04:36:42;;;;;;;5.47;1.43;;;19.30;99.90;;;;;;5087291;28;20542;-76
2023/08/23 04:39:10;;;;;;;2.67;1.30;;;19.30;99.90;;;;;;5077332;28;20528;-77
2023/08/23 04:41:37;;;;;;;5.70;2.00;;;19.30;99.90;;;;;;5086083;28;20474;-80
2023/08/23 04:44:04;;;;;;;4.13;2.37;;;19.20;99.90;;;;;;5074226;28;20486;-79
2023/08/23 04:46:31;;;;;;;1.87;1.53;;;19.20;99.90;;;;;;5079363;28;20460;-75
2023/08/23 04:49:00;;;;;;;6.53;2.97;;;19.20;99.90;;;;;;5065943;28;20678;-76
2023/08/23 04:51:26;;;;;;;8.03;1.37;;;19.20;99.90;;;;;;5081015;28;20594;-80
2023/08/23 04:53:53;;;;;;;11.37;2.07;;;19.30;99.90;;;;;;5078970;28;20509;-80
2023/08/23 04:56:21;;;;;;;1.00;0.80;;;19.20;99.90;;;;;;5077717;28;20475;-76
2023/08/23 04:58:47;;;;;;;1.33;1.00;;;19.10;99.90;;;;;;5080446;28;20470;-76
2023/08/23 05:01:15;;;;;;;2.23;0.70;;;19.20;99.90;;;;;;5092310;28;20513;-74
2023/08/23 05:03:42;;;;;;;0.80;0.73;;;19.20;99.90;;;;;;5073390;28;20529;-80
2023/08/23 05:06:10;;;;;;;1.17;1.07;;;19.20;99.90;;;;;;5086274;28;20495;-77
2023/08/23 05:08:37;;;;;;;2.60;1.10;;;19.40;99.90;;;;;;5085598;28;20467;-76
2023/08/23 05:11:04;;;;;;;1.10;0.80;;;19.50;99.90;;;;;;5086496;28;20936;-79
2023/08/23 05:13:31;;;;;;;0.70;0.70;;;19.60;99.90;;;;;;5070406;28;20569;-83
2023/08/23 05:15:58;;;;;;;0.90;0.70;;;19.50;99.90;;;;;;5087763;28;20485;-77
2023/08/23 05:18:25;;;;;;;0.50;0.50;;;19.50;99.90;;;;;;5076463;28;20953;-75
2023/08/23 05:20:57;;;;;;;3.63;0.80;;;19.60;99.90;;;;;;5080479;28;20484;-82
2023/08/23 05:23:26;;;;;;;0.60;0.60;;;19.50;99.90;;;;;;5077466;28;20507;-82
2023/08/23 05:25:53;;;;;;;1.30;0.60;;;19.40;99.90;;;;;;5085252;28;20522;-76
2023/08/23 05:28:21;;;;;;;12.90;0.70;;;19.40;99.90;;;;;;5067517;28;20472;-81
2023/08/23 05:30:48;;;;;;;2.80;0.80;;;19.40;99.90;;;;;;5073707;28;20476;-79
2023/08/23 05:33:15;;;;;;;3.00;0.80;;;19.40;99.90;;;;;;5072252;28;20875;-80
2023/08/23 05:35:43;;;;;;;1.57;0.60;;;19.40;99.90;;;;;;5077343;28;20552;-76
2023/08/23 05:38:10;;;;;;;1.40;1.20;;;19.30;99.90;;;;;;5071080;28;20475;-80
2023/08/23 05:40:39;;;;;;;1.63;0.80;;;19.40;99.90;;;;;;5080092;28;20493;-76
2023/08/23 05:43:07;;;;;;;2.20;0.80;;;19.30;99.90;;;;;;5075222;28;20502;-78
2023/08/23 05:45:34;;;;;;;1.63;0.90;;;19.40;99.90;;;;;;5077566;28;20495;-80
2023/08/23 05:48:01;;;;;;;2.70;1.50;;;19.50;99.90;;;;;;5079673;28;20472;-76
2023/08/23 05:50:28;;;;;;;4.47;1.90;;;19.50;99.90;;;;;;5084171;28;20440;-75
2023/08/23 05:52:55;;;;;;;1.53;1.37;;;19.60;99.90;;;;;;5067637;28;20897;-82
2023/08/23 05:55:22;;;;;;;2.30;1.30;;;19.70;99.90;;;;;;5067588;28;20479;-76
2023/08/23 05:57:50;;;;;;;2.47;1.90;;;19.80;99.90;;;;;;5066475;28;21158;-76
2023/08/23 06:00:17;;;;;;;2.60;2.40;;;19.90;99.90;;;;;;5069424;28;20552;-78
2023/08/23 06:02:44;;;;;;;3.13;2.80;;;19.90;99.90;;;;;;5073363;28;21478;-76
2023/08/23 06:05:13;;;;;;;3.10;2.80;;;19.90;99.90;;;;;;5070725;28;20479;-77
2023/08/23 06:07:40;;;;;;;7.07;4.37;;;19.90;99.90;;;;;;5072645;28;20458;-76
2023/08/23 06:10:09;;;;;;;5.33;4.57;;;19.90;99.90;;;;;;5069972;28;20479;-78
2023/08/23 06:12:35;;;;;;;5.10;3.23;;;20.10;99.90;;;;;;5076151;28;20495;-76
2023/08/23 06:15:05;;;;;;;3.50;3.30;;;20.10;99.90;;;;;;5075101;28;21048;-76
2023/08/23 06:17:32;;;;;;;3.13;2.83;;;20.20;99.90;;;;;;5083802;28;20446;-77
2023/08/23 06:19:59;;;;;;;3.20;2.87;;;20.30;99.90;;;;;;5087052;28;20479;-76
2023/08/23 06:22:25;;;;;;;3.03;2.70;;;20.30;99.90;;;;;;5076599;28;20542;-80
2023/08/23 06:24:53;;;;;;;3.67;3.37;;;20.20;99.90;;;;;;5082404;28;20471;-75
2023/08/23 06:27:20;;;;;;;3.90;3.60;;;20.30;99.90;;;;;;5075199;28;20503;-77
2023/08/23 06:29:46;;;;;;;3.30;3.10;;;20.40;99.90;;;;;;5084395;28;20458;-79
2023/08/23 06:32:15;;;;;;;2.53;2.20;;;20.30;99.90;;;;;;5087446;28;20470;-76
2023/08/23 06:34:42;;;;;;;7.20;2.37;;;20.10;99.90;;;;;;5084157;28;20471;-76
2023/08/23 06:37:09;;;;;;;5.10;2.07;;;20.00;99.90;;;;;;5085630;28;20478;-82
2023/08/23 06:39:36;;;;;;;3.77;1.80;;;19.80;99.90;;;;;;5086628;28;21123;-81
2023/08/23 06:42:03;;;;;;;2.23;1.83;;;19.80;99.90;;;;;;5077908;28;20963;-78
2023/08/23 06:44:30;;;;;;;3.57;2.30;;;19.90;99.90;;;;;;5069353;28;21029;-77
2023/08/23 06:46:57;;;;;;;6.37;3.57;;;20.00;99.90;;;;;;5068605;28;20495;-77
2023/08/23 06:49:26;;;;;;;3.30;3.10;;;20.10;99.90;;;;;;5075117;28;20479;-82
2023/08/23 06:51:53;;;;;;;4.10;3.20;;;20.30;99.90;;;;;;5071351;28;20496;-80
2023/08/23 06:54:19;;;;;;;6.67;4.07;;;20.50;99.90;;;;;;5074882;28;21003;-80
2023/08/23 06:56:47;;;;;;;3.90;3.50;;;20.60;99.90;;;;;;5074902;28;20494;-81
2023/08/23 06:59:14;;;;;;;4.13;3.83;;;20.80;99.90;;;;;;5070533;28;20498;-78
2023/08/23 07:01:41;;;;;;;5.20;4.53;;;20.90;99.90;;;;;;5075458;28;20565;-81
2023/08/23 07:04:08;;;;;;;5.27;4.73;;;21.10;99.90;;;;;;5077673;28;20456;-77
2023/08/23 07:06:37;;;;;;;4.43;4.03;;;21.10;99.90;;;;;;5077942;28;20495;-83
2023/08/23 07:09:04;;;;;;;7.43;5.13;;;21.30;99.90;;;;;;5080965;28;20532;-78
2023/08/23 07:11:31;;;;;;;4.97;4.57;;;21.30;99.90;;;;;;5082709;28;20454;-77
2023/08/23 07:13:58;;;;;;;5.70;5.20;;;21.50;99.90;;;;;;5070357;28;20554;-78
2023/08/23 07:16:25;;;;;;;6.00;5.03;;;21.50;99.90;;;;;;5072027;28;20491;-78
2023/08/23 07:18:52;;;;;;;6.00;5.40;;;21.50;99.90;;;;;;5078992;28;20498;-82
2023/08/23 07:21:19;;;;;;;7.77;5.80;;;21.60;99.90;;;;;;5071719;28;20515;-78
2023/08/23 07:23:47;;;;;;;4.93;4.37;;;21.70;99.90;;;;;;5077827;28;20478;-80
2023/08/23 07:26:14;;;;;;;4.37;4.07;;;21.70;99.90;;;;;;5080075;28;21073;-79
2023/08/23 07:28:41;;;;;;;6.00;5.50;;;21.80;99.90;;;;;;5087080;28;20543;-78
2023/08/23 07:31:08;;;;;;;6.23;5.60;;;22.00;99.90;;;;;;5088421;28;20513;-83
2023/08/23 07:33:35;;;;;;;4.50;4.20;;;22.20;99.90;;;;;;5084800;28;20575;-83
2023/08/23 07:36:02;;;;;;;5.67;5.23;;;22.40;99.90;;;;;;5080576;28;20520;-79
2023/08/23 07:38:31;;;;;;;4.80;4.33;;;22.60;99.90;;;;;;5079602;28;20520;-79
2023/08/23 07:41:01;;;;;;;6.77;6.13;;;22.70;99.90;;;;;;5094715;28;20478;-79
2023/08/23 07:43:28;;;;;;;5.53;5.13;;;22.60;99.90;;;;;;5082926;28;20529;-79
2023/08/23 07:45:56;;;;;;;4.90;4.50;;;22.70;99.90;;;;;;5089114;28;20458;-78
2023/08/23 07:48:23;;;;;;;6.07;5.57;;;22.60;99.90;;;;;;5082746;28;20946;-82
2023/08/23 07:50:51;;;;;;;6.40;5.83;;;22.70;99.90;;;;;;5083210;28;20466;-80
2023/08/23 07:53:18;;;;;;;6.30;5.80;;;23.00;99.90;;;;;;5083562;28;20490;-79
2023/08/23 07:55:45;;;;;;;5.33;4.93;;;23.30;99.90;;;;;;5083604;28;20539;-79
2023/08/23 07:58:13;;;;;;;7.53;5.03;;;23.20;99.90;;;;;;5080445;28;20603;-80
2023/08/23 08:00:40;;;;;;;5.30;4.77;;;23.50;99.90;;;;;;5075547;28;20498;-81
2023/08/23 08:03:07;;;;;;;4.17;3.87;;;23.70;99.90;;;;;;5079945;28;20798;-79
2023/08/23 08:05:35;;;;;;;4.80;4.40;;;23.90;99.90;;;;;;5078201;28;20536;-80
2023/08/23 08:08:02;;;;;;;4.83;4.43;;;24.20;99.90;;;;;;5081920;28;20451;-79
2023/08/23 08:10:29;;;;;;;6.67;5.37;;;24.50;99.90;;;;;;5078522;28;20959;-83
2023/08/23 08:12:58;;;;;;;5.77;5.37;;;24.70;99.90;;;;;;5074871;28;20487;-81
2023/08/23 08:15:27;;;;;;;4.97;4.67;;;24.80;99.90;;;;;;5087006;28;20439;-83
2023/08/23 08:17:54;;;;;;;4.67;4.30;;;24.60;99.90;;;;;;5084464;28;20534;-80
2023/08/23 08:20:24;;;;;;;5.60;5.10;;;24.70;99.90;;;;;;5074125;28;21025;-81
2023/08/23 08:22:52;;;;;;;4.37;3.90;;;24.80;99.90;;;;;;5072415;28;21026;-80
2023/08/23 08:25:19;;;;;;;3.60;3.40;;;25.00;99.90;;;;;;5083633;28;20459;-82
2023/08/23 08:27:46;;;;;;;4.53;4.10;;;25.10;99.90;;;;;;5086102;28;20858;-81
2023/08/23 08:30:13;;;;;;;6.83;4.73;;;25.00;99.90;;;;;;5080346;28;20469;-82
2023/08/23 08:32:42;;;;;;;5.47;5.07;;;24.80;99.90;;;;;;5081223;28;20570;-82
2023/08/23 08:35:09;;;;;;;5.63;5.13;;;24.70;99.90;;;;;;5085162;28;20508;-80
2023/08/23 08:37:36;;;;;;;8.70;4.60;;;24.90;99.90;;;;;;5087956;28;20549;-78
2023/08/23 08:40:03;;;;;;;4.67;4.30;;;25.00;99.90;;;;;;5079116;28;21045;-80
2023/08/23 08:42:30;;;;;;;5.90;5.40;;;25.10;99.90;;;;;;5085820;28;20452;-81
2023/08/23 08:44:58;;;;;;;6.50;4.70;;;25.20;99.90;;;;;;5078997;28;20958;-80
2023/08/23 08:47:25;;;;;;;4.43;4.03;;;25.40;99.90;;;;;;5084782;28;20579;-81
2023/08/23 08:49:53;;;;;;;4.90;4.50;;;25.40;99.90;;;;;;5073755;27;20483;-82
2023/08/23 08:52:21;;;;;;;4.57;4.20;;;25.50;99.90;;;;;;5075793;28;20490;-79
2023/08/23 08:54:51;;;;;;;7.10;4.60;;;25.60;99.90;;;;;;5080243;28;20450;-81
2023/08/23 08:57:18;;;;;;;5.53;4.10;;;25.60;99.90;;;;;;5072363;28;20454;-81
2023/08/23 08:59:46;;;;;;;7.60;5.47;;;26.00;99.90;;;;;;5073023;28;20460;-82
2023/08/23 09:02:18;;;;;;;3.77;3.33;;;26.10;99.90;;;;;;5092284;28;20556;-81
2023/08/23 09:04:47;;;;;;;5.37;4.90;;;26.50;99.90;;;;;;5078936;28;20478;-79
2023/08/23 09:07:16;;;;;;;5.50;4.17;;;26.80;99.90;;;;;;5079661;28;20522;-80
2023/08/23 09:09:43;;;;;;;5.23;4.73;;;26.70;99.90;;;;;;5076140;28;20972;-81
2023/08/23 09:12:10;;;;;;;3.80;3.60;;;26.70;99.90;;;;;;5083672;28;20535;-82
2023/08/23 09:14:40;;;;;;;6.17;4.50;;;26.80;99.90;;;;;;5087987;28;20456;-81
2023/08/23 09:17:08;;;;;;;6.30;5.67;;;26.60;99.90;;;;;;5083799;28;20578;-80
2023/08/23 09:19:36;;;;;;;5.13;4.73;;;26.50;99.90;;;;;;5086586;28;20495;-79
2023/08/23 09:22:05;;;;;;;5.90;5.30;;;26.80;99.90;;;;;;5082740;28;20492;-81
2023/08/23 09:24:34;;;;;;;5.50;4.67;;;27.10;99.90;;;;;;5079162;28;20502;-79
2023/08/23 09:27:01;;;;;;;5.20;4.70;;;27.50;99.90;;;;;;5084054;28;20897;-81
2023/08/23 09:29:28;;;;;;;6.30;4.80;;;27.20;99.90;;;;;;5071376;28;20496;-80
2023/08/23 09:31:59;;;;;;;6.60;5.30;;;27.10;99.90;;;;;;5073529;28;20852;-81
2023/08/23 09:34:26;;;;;;;5.73;4.67;;;27.10;99.90;;;;;;5069136;28;20462;-79
2023/08/23 09:36:53;;;;;;;6.10;5.53;;;27.20;99.90;;;;;;5077944;28;20514;-79
2023/08/23 09:39:20;;;;;;;6.87;6.23;;;26.20;99.90;;;;;;5069068;28;20939;-79
2023/08/23 09:41:49;;;;;;;6.77;6.17;;;25.60;99.90;;;;;;5077912;28;20560;-79
2023/08/23 09:44:18;;;;;;;5.87;4.30;;;26.00;99.90;;;;;;5068276;28;20512;-79
2023/08/23 09:46:46;;;;;;;5.00;4.60;;;26.60;99.90;;;;;;5069274;28;20516;-80
2023/08/23 09:49:16;;;;;;;5.77;5.10;;;27.10;99.90;;;;;;5081445;28;20464;-79
2023/08/23 09:51:44;;;;;;;6.07;5.57;;;27.30;99.90;;;;;;5073079;28;20494;-79
2023/08/23 09:54:14;;;;;;;5.90;5.30;;;27.40;99.90;;;;;;5072097;28;20535;-81
2023/08/23 09:56:43;;;;;;;5.80;5.07;;;27.30;99.90;;;;;;5076936;28;20579;-80
2023/08/23 09:59:12;;;;;;;6.47;5.90;;;27.30;99.90;;;;;;5079651;28;20494;-79
2023/08/23 10:01:39;;;;;;;4.77;4.20;;;26.90;99.90;;;;;;5068923;28;20519;-82
2023/08/23 10:04:08;;;;;;;5.30;4.80;;;27.40;99.90;;;;;;5069763;28;20504;-79
2023/08/23 10:06:36;;;;;;;5.00;4.60;;;28.20;99.90;;;;;;5084574;28;20465;-79
2023/08/23 10:09:04;;;;;;;4.60;4.20;;;28.00;99.90;;;;;;5076303;28;20524;-80
2023/08/23 10:11:32;;;;;;;5.97;5.60;;;28.30;99.90;;;;;;5081042;28;20488;-79
2023/08/23 10:14:01;;;;;;;3.90;3.60;;;28.40;99.90;;;;;;5081764;28;20546;-81
2023/08/23 10:16:30;;;;;;;6.90;5.97;;;28.40;99.90;;;;;;5082194;28;20982;-81
2023/08/23 10:18:58;;;;;;;4.47;4.07;;;28.40;99.90;;;;;;5087766;28;20535;-81
2023/08/23 10:21:26;;;;;;;4.53;4.17;;;28.30;99.90;;;;;;5099393;28;20478;-81
2023/08/23 10:23:54;;;;;;;4.40;4.10;;;28.20;99.90;;;;;;5093151;28;20442;-79
2023/08/23 10:26:22;;;;;;;4.93;4.17;;;28.30;99.90;;;;;;5089502;28;20471;-79
2023/08/23 10:28:51;;;;;;;4.97;4.67;;;28.20;99.90;;;;;;5074034;28;20494;-81
2023/08/23 10:31:23;;;;;;;5.23;4.83;;;27.90;99.90;;;;;;5081563;28;20615;-81
2023/08/23 10:33:56;;;;;;;7.93;6.30;;;28.00;99.90;;;;;;5068474;28;20457;-81
2023/08/23 10:36:25;;;;;;;5.70;5.30;;;28.10;99.90;;;;;;5073812;28;20513;-81
2023/08/23 10:38:54;;;;;;;7.47;4.33;;;28.20;99.90;;;;;;5074301;28;20547;-79
2023/08/23 10:41:22;;;;;;;6.00;4.70;;;28.00;99.90;;;;;;5078154;28;20604;-80
2023/08/23 10:43:49;;;;;;;4.63;4.33;;;27.90;99.90;;;;;;5068467;28;20456;-82
2023/08/23 10:46:18;;;;;;;4.17;3.80;;;27.90;99.90;;;;;;5079892;28;20463;-80
2023/08/23 10:48:46;;;;;;;5.50;5.00;;;27.90;99.90;;;;;;5082629;28;20455;-81
2023/08/23 10:51:15;;;;;;;6.27;5.77;;;27.90;99.90;;;;;;5068127;28;20524;-81
2023/08/23 10:53:43;;;;;;;7.27;5.20;;;28.00;99.90;;;;;;5076560;28;20513;-79
2023/08/23 10:56:10;;;;;;;5.33;4.93;;;28.10;99.90;;;;;;5073886;28;20542;-81
2023/08/23 10:58:38;;;;;;;4.70;4.33;;;28.20;99.90;;;;;;5071866;28;20444;-81
2023/08/23 11:01:05;;;;;;;5.07;4.60;;;28.50;99.90;;;;;;5067574;28;20564;-79
2023/08/23 11:03:34;;;;;;;4.13;3.83;;;28.70;99.90;;;;;;5077150;28;20474;-79
2023/08/23 11:06:01;;;;;;;4.70;4.30;;;28.40;99.90;;;;;;5077101;28;20872;-81
2023/08/23 11:08:31;;;;;;;5.30;4.90;;;28.50;99.90;;;;;;5073722;28;20455;-81
2023/08/23 11:10:58;;;;;;;5.13;4.80;;;28.60;99.90;;;;;;5077141;28;21022;-82
2023/08/23 11:13:25;;;;;;;5.93;5.43;;;28.40;99.90;;;;;;5078285;28;20593;-80
2023/08/23 11:15:53;;;;;;;5.50;5.07;;;28.70;99.90;;;;;;5074987;28;20546;-79
2023/08/23 11:18:21;;;;;;;5.50;5.00;;;28.80;99.90;;;;;;5077192;28;20982;-79
2023/08/23 11:20:48;;;;;;;4.20;3.97;;;29.00;99.90;;;;;;5074428;28;20516;-79
2023/08/23 11:23:16;;;;;;;5.70;5.30;;;29.20;99.90;;;;;;5079425;28;20463;-80
2023/08/23 11:25:44;;;;;;;5.90;5.30;;;29.10;99.90;;;;;;5075619;28;20826;-79
2023/08/23 11:28:12;;;;;;;4.60;4.30;;;29.20;99.90;;;;;;5080671;28;20431;-79
2023/08/23 11:30:39;;;;;;;5.60;5.00;;;29.20;99.90;;;;;;5076492;28;20951;-81
2023/08/23 11:33:07;;;;;;;4.83;4.40;;;29.30;99.90;;;;;;5076105;28;20435;-81
2023/08/23 11:35:34;;;;;;;4.50;4.10;;;29.40;99.90;;;;;;5075921;28;20923;-80
2023/08/23 11:38:03;;;;;;;5.57;4.67;;;29.20;99.90;;;;;;5070396;28;20497;-80
2023/08/23 11:40:30;;;;;;;5.07;4.70;;;29.40;99.90;;;;;;5076104;28;20805;-82
2023/08/23 11:42:58;;;;;;;5.90;5.27;;;29.40;99.90;;;;;;5100423;28;20528;-79
2023/08/23 11:45:25;;;;;;;5.90;5.50;;;29.40;99.90;;;;;;5081093;28;20489;-78
2023/08/23 11:47:54;;;;;;;5.37;4.97;;;29.30;99.90;;;;;;5080694;28;20988;-77
2023/08/23 11:50:21;;;;;;;9.43;5.47;;;29.30;99.90;;;;;;5080522;28;20986;-77
2023/08/23 11:52:49;;;;;;;5.10;4.80;;;29.20;99.90;;;;;;5078641;28;20521;-79
2023/08/23 11:55:24;;;;;;;4.17;3.87;;;29.20;99.90;;;;;;5083486;28;20529;-78
2023/08/23 11:57:55;;;;;;;4.33;4.03;;;29.10;99.90;;;;;;5080857;28;20928;-80
2023/08/23 12:00:24;;;;;;;4.87;4.27;;;29.30;99.90;;;;;;5078013;28;20479;-77
2023/08/23 12:02:51;;;;;;;4.50;4.20;;;29.40;99.90;;;;;;5077102;28;20515;-80
2023/08/23 12:05:19;;;;;;;4.17;3.97;;;29.50;99.90;;;;;;5069337;28;20467;-79
2023/08/23 12:07:46;;;;;;;4.33;3.93;;;29.70;99.90;;;;;;5079573;28;20846;-78
2023/08/23 12:10:13;;;;;;;3.67;3.37;;;29.90;99.90;;;;;;5070959;28;20464;-77
2023/08/23 12:12:40;;;;;;;4.70;4.13;;;29.70;99.90;;;;;;5068778;28;20630;-78
2023/08/23 12:15:08;;;;;;;6.40;3.60;;;29.60;99.90;;;;;;5073524;28;20452;-80
2023/08/23 12:17:37;;;;;;;4.73;4.10;;;29.50;99.90;;;;;;5071584;28;20460;-80
2023/08/23 12:20:07;;;;;;;4.13;3.70;;;29.80;99.90;;;;;;5072603;28;20547;-78
2023/08/23 12:22:34;;;;;;;4.20;3.90;;;30.00;99.90;;;;;;5074646;28;20488;-78
2023/08/23 12:25:01;;;;;;;3.80;3.50;;;30.10;99.90;;;;;;5072192;28;20460;-78
2023/08/23 12:27:28;;;;;;;3.80;3.50;;;30.20;99.80;;;;;;5074397;28;20574;-80
2023/08/23 12:29:55;;;;;;;3.80;3.50;;;30.40;99.50;;;;;;5071203;28;20488;-78
2023/08/23 12:32:22;;;;;;;3.60;3.30;;;30.40;99.70;;;;;;5078036;28;20545;-78
2023/08/23 12:34:50;;;;;;;3.80;3.40;;;30.00;99.90;;;;;;5073209;28;20446;-78
2023/08/23 12:37:18;;;;;;;3.40;3.17;;;29.90;99.70;;;;;;5083985;28;20443;-79
2023/08/23 12:39:44;;;;;;;4.30;3.90;;;30.10;99.50;;;;;;5073196;28;20470;-77
2023/08/23 12:42:11;;;;;;;3.13;2.93;;;30.40;98.80;;;;;;5077823;28;20512;-78
2023/08/23 12:44:38;;;;;;;4.83;3.20;;;30.50;99.30;;;;;;5077601;28;20875;-80
2023/08/23 12:47:06;;;;;;;3.40;2.63;;;30.70;99.90;;;;;;5074111;28;20464;-78